Saint-Lazare, Canada
Current Conditions -  °F | °C
As of 3:00 PM on Thursday 23 Oct 2014 (Local Time) from CYQB Reporting Station
Overcast Overcast  
Wind Chill: 40°   Ceiling: 9300
Heat Index: 46°   Visibility: 20mi
Dew Point: 37°   Wind: 15mph
Humidity: 71%   Direction: 80°E
Pressure: 30.06"   Gusts: 24mph
Location:  46.65°N, 70.8°W
Report Text: CYQB 231900Z 08013G21KT 20SM FEW025 FEW078 OVC093 08/03 A3006 RMK SC1AC1AC7 SC TR SLP182
Loading
Personal Weather Stations






























Interactive Weather Map
Tropical Storm Tracking
New forecast layout! Learn more

10-Day Weather Forecast

Advertisements
Track Severe Weather on mobile